Time;durP1;ratioP1;P1;durP2;ratioP2;P2;SDS_P1;SDS_P2;PMS_P1;PMS_P2;Temp;Humidity;BMP_temperature;BMP_pressure;BME280_temperature;BME280_humidity;BME280_pressure;Samples;Min_cycle;Max_cycle;Signal;HPM_P1;HPM_P2
2022/06/21 00:01:58;;;;;;;4.00;1.05;;;12.10;99.90;;;;;;5111639;27;20144;-87
2022/06/21 00:04:24;;;;;;;3.63;0.85;;;12.10;99.90;;;;;;5095858;27;20082;-86
2022/06/21 00:06:50;;;;;;;4.43;1.15;;;12.20;99.90;;;;;;5111712;27;20458;-86
2022/06/21 00:09:17;;;;;;;8.43;1.33;;;13.00;99.90;;;;;;5077969;27;20043;-86
2022/06/21 00:11:43;;;;;;;5.32;1.30;;;12.30;99.90;;;;;;5129250;27;20047;-86
2022/06/21 00:14:09;;;;;;;9.73;1.67;;;12.30;99.90;;;;;;5111853;27;20047;-86
2022/06/21 00:16:35;;;;;;;9.43;2.15;;;12.30;99.90;;;;;;5129219;27;20724;-86
2022/06/21 00:19:02;;;;;;;5.13;1.58;;;12.30;99.90;;;;;;5094312;27;20498;-86
2022/06/21 00:21:34;;;;;;;6.90;1.30;;;12.30;99.90;;;;;;5095525;27;20482;-86
2022/06/21 00:24:00;;;;;;;8.80;1.50;;;12.40;99.90;;;;;;5128643;27;20043;-86
2022/06/21 00:26:28;;;;;;;5.70;1.48;;;12.20;99.90;;;;;;5110576;27;20050;-87
2022/06/21 00:28:54;;;;;;;8.25;1.10;;;12.20;99.90;;;;;;5112006;27;20104;-86
2022/06/21 00:31:23;;;;;;;6.93;1.92;;;12.20;99.90;;;;;;5094275;27;20054;-86
2022/06/21 00:33:49;;;;;;;7.28;1.63;;;12.10;99.90;;;;;;5128973;27;20039;-86
2022/06/21 00:36:32;;;;;;;6.78;2.05;;;12.10;99.90;;;;;;5093850;27;20049;-86
2022/06/21 00:39:00;;;;;;;6.75;1.25;;;12.10;99.90;;;;;;5128838;27;20042;-87
2022/06/21 00:41:53;;;;;;;4.63;1.58;;;12.00;99.90;;;;;;5128510;27;20047;-86
2022/06/21 00:44:22;;;;;;;;;;;12.00;99.90;;;;;;5110782;27;20106;-87
2022/06/21 00:47:35;;;;;;;3.70;1.52;;;11.90;99.90;;;;;;5111342;27;19930;-87
2022/06/21 00:50:23;;;;;;;5.43;1.20;;;11.90;99.90;;;;;;5029281;28;20518;-86
2022/06/21 00:53:01;;;;;;;8.00;1.90;;;11.80;99.90;;;;;;5109953;27;20150;-87
2022/06/21 00:55:37;;;;;;;3.25;1.55;;;12.20;99.90;;;;;;5128345;27;20054;-86
2022/06/21 00:58:03;;;;;;;5.13;2.03;;;11.80;99.90;;;;;;5110625;27;20387;-87
2022/06/21 01:00:31;;;;;;;4.90;1.67;;;11.80;99.90;;;;;;5111023;27;20389;-86
2022/06/21 01:03:01;;;;;;;8.75;1.63;;;11.70;99.90;;;;;;5111312;27;20047;-87
2022/06/21 01:05:30;;;;;;;7.82;1.73;;;11.60;99.90;;;;;;5110810;27;20047;-86
2022/06/21 01:07:57;;;;;;;8.05;1.83;;;11.60;99.90;;;;;;5128147;27;20037;-86
2022/06/21 01:10:24;;;;;;;8.43;1.45;;;11.60;99.90;;;;;;5093036;27;20043;-86
2022/06/21 01:12:52;;;;;;;3.65;1.45;;;11.50;99.90;;;;;;5110889;27;20092;-87
2022/06/21 01:15:22;;;;;;;7.10;1.98;;;11.60;99.90;;;;;;5110839;27;20070;-87
2022/06/21 01:17:54;;;;;;;4.97;2.03;;;11.50;99.90;;;;;;5127735;27;20100;-86
2022/06/21 01:20:23;;;;;;;8.95;2.47;;;11.90;99.90;;;;;;5111637;27;20050;-86
2022/06/21 01:22:58;;;;;;;5.28;2.10;;;11.40;99.90;;;;;;5111009;27;20042;-86
2022/06/21 01:25:57;;;;;;;10.52;2.00;;;11.40;99.90;;;;;;5112011;27;20053;-86
2022/06/21 01:28:24;;;;;;;9.80;2.25;;;11.40;99.90;;;;;;5078726;27;20058;-86
2022/06/21 01:30:53;;;;;;;6.07;1.85;;;11.70;99.90;;;;;;5110499;27;20046;-87
2022/06/21 01:33:28;;;;;;;5.57;2.00;;;11.30;99.90;;;;;;5110612;27;20090;-86
2022/06/21 01:35:58;;;;;;;7.28;2.20;;;11.40;99.90;;;;;;5127712;27;20050;-86
2022/06/21 01:38:32;;;;;;;6.43;2.10;;;11.40;99.90;;;;;;5110276;28;20043;-87
2022/06/21 01:41:03;;;;;;;6.65;2.08;;;11.40;99.90;;;;;;5126956;27;20043;-86
2022/06/21 01:43:32;;;;;;;4.00;1.80;;;11.30;99.90;;;;;;5109875;27;20042;-87
2022/06/21 01:46:03;;;;;;;11.90;2.53;;;11.30;99.90;;;;;;5110098;28;20414;-86
2022/06/21 01:48:44;;;;;;;2.43;1.00;;;11.80;99.90;;;;;;5109691;27;20540;-86
2022/06/21 01:51:15;;;;;;;5.78;2.08;;;11.30;99.90;;;;;;5127429;28;20494;-86
2022/06/21 01:53:42;;;;;;;7.07;2.00;;;11.70;99.90;;;;;;5126911;28;20088;-86
2022/06/21 01:56:15;;;;;;;8.73;2.42;;;11.30;99.90;;;;;;5093178;28;20047;-87
2022/06/21 01:58:45;;;;;;;4.82;1.90;;;11.20;99.90;;;;;;5110406;28;20068;-86
2022/06/21 02:01:18;;;;;;;6.57;2.25;;;11.40;99.90;;;;;;5128690;27;20049;-86
2022/06/21 02:03:47;;;;;;;6.00;1.95;;;11.10;99.90;;;;;;5110286;28;20047;-86
2022/06/21 02:06:14;;;;;;;5.68;2.08;;;11.00;99.90;;;;;;5109733;28;20082;-87
2022/06/21 02:08:52;;;;;;;5.85;2.13;;;11.00;99.90;;;;;;5127785;28;20027;-86
2022/06/21 02:11:24;;;;;;;6.07;2.25;;;12.20;99.90;;;;;;5110947;28;20066;-86
2022/06/21 02:16:42;;;;;;;4.47;1.75;;;10.90;99.90;;;;;;5129113;28;20828;-86
2022/06/21 02:19:31;;;;;;;3.33;1.73;;;10.80;99.90;;;;;;5127739;28;20074;-86
2022/06/21 02:21:57;;;;;;;7.22;2.15;;;10.80;99.90;;;;;;5110959;28;20101;-86
2022/06/21 02:24:28;;;;;;;9.13;2.50;;;11.50;99.90;;;;;;5111129;28;20035;-86
2022/06/21 02:26:54;;;;;;;8.93;2.88;;;10.80;99.90;;;;;;5110448;28;20126;-86
2022/06/21 02:29:20;;;;;;;11.55;3.15;;;11.00;99.90;;;;;;5111480;28;20496;-86
2022/06/21 02:31:46;;;;;;;6.53;2.47;;;11.20;99.90;;;;;;5110921;28;20086;-86
2022/06/21 02:34:21;;;;;;;9.77;2.83;;;10.20;99.90;;;;;;5095120;28;20039;-86
2022/06/21 02:36:55;;;;;;;6.63;2.38;;;11.00;99.90;;;;;;5111016;28;20051;-85
2022/06/21 02:39:24;;;;;;;6.95;2.40;;;10.70;99.90;;;;;;5127584;28;20083;-88
2022/06/21 02:41:59;;;;;;;4.80;2.67;;;10.70;99.90;;;;;;5111036;28;20486;-88
2022/06/21 02:44:36;;;;;;;7.95;1.90;;;10.60;99.90;;;;;;5110154;28;20343;-86
2022/06/21 02:47:09;;;;;;;2.90;1.95;;;10.60;99.90;;;;;;5111812;27;20062;-87
2022/06/21 02:49:49;;;;;;;5.55;2.20;;;10.60;99.90;;;;;;5114639;27;20043;-87
2022/06/21 02:52:27;;;;;;;4.45;1.98;;;9.50;99.90;;;;;;5131463;27;20046;-86
2022/06/21 02:55:02;;;;;;;5.22;1.73;;;10.40;99.90;;;;;;5115217;27;20103;-86
2022/06/21 02:57:35;;;;;;;6.18;2.13;;;10.50;99.90;;;;;;5114725;27;20122;-87
2022/06/21 03:00:04;;;;;;;8.23;2.53;;;10.50;99.90;;;;;;5115840;27;20498;-86
2022/06/21 03:02:32;;;;;;;10.20;2.25;;;10.40;99.90;;;;;;5114910;27;20397;-86
2022/06/21 03:05:03;;;;;;;6.47;2.45;;;10.50;99.90;;;;;;5115210;27;20147;-88
2022/06/21 03:07:33;;;;;;;9.05;2.35;;;10.50;99.90;;;;;;5116114;27;20183;-86
2022/06/21 03:09:59;;;;;;;5.80;2.35;;;10.60;99.90;;;;;;5133218;27;20111;-86
2022/06/21 03:12:31;;;;;;;6.85;1.90;;;11.70;99.90;;;;;;5115541;27;20080;-86
2022/06/21 03:15:10;;;;;;;4.75;2.40;;;10.80;99.90;;;;;;5113693;27;20047;-86
2022/06/21 03:17:56;;;;;;;10.52;1.65;;;9.50;99.90;;;;;;5116581;27;20043;-86
2022/06/21 03:20:23;;;;;;;5.90;2.28;;;10.50;99.90;;;;;;5137245;27;20432;-87
2022/06/21 03:22:52;;;;;;;5.82;1.77;;;11.60;99.90;;;;;;5119317;27;20561;-87
2022/06/21 03:25:26;;;;;;;9.10;2.33;;;11.20;99.90;;;;;;5103440;27;20050;-87
2022/06/21 03:28:18;;;;;;;10.30;2.92;;;10.40;99.90;;;;;;5138601;27;20043;-87
2022/06/21 03:30:47;;;;;;;8.02;2.08;;;10.40;99.90;;;;;;5122090;27;20071;-87
2022/06/21 03:33:13;;;;;;;8.02;2.08;;;10.40;99.90;;;;;;5089328;27;20042;-86
2022/06/21 03:35:39;;;;;;;8.68;2.42;;;10.40;99.90;;;;;;5104586;27;20043;-89
2022/06/21 03:38:11;;;;;;;7.40;2.63;;;10.40;99.90;;;;;;5105494;27;20047;-88
2022/06/21 03:43:41;;;;;;;3.63;2.28;;;10.50;99.90;;;;;;5141288;27;20047;-86
2022/06/21 03:46:13;;;;;;;9.20;2.10;;;10.60;99.90;;;;;;5140279;27;20051;-86
2022/06/21 03:48:58;;;;;;;8.77;2.13;;;10.60;99.90;;;;;;5140020;27;20055;-86
2022/06/21 03:51:29;;;;;;;6.78;2.55;;;10.70;99.90;;;;;;5125230;27;20067;-86
2022/06/21 03:54:12;;;;;;;6.97;2.47;;;10.70;99.90;;;;;;5142673;27;20043;-87
2022/06/21 03:57:02;;;;;;;2.42;1.67;;;10.80;99.90;;;;;;5125728;27;20098;-87
2022/06/21 03:59:34;;;;;;;6.45;2.25;;;10.90;99.90;;;;;;5129884;27;20062;-87
2022/06/21 04:02:25;;;;;;;6.10;2.50;;;11.00;99.90;;;;;;5145978;27;20107;-86
2022/06/21 04:04:54;;;;;;;5.45;1.98;;;11.10;99.90;;;;;;5127533;27;20054;-87
2022/06/21 04:07:20;;;;;;;4.35;2.08;;;11.20;99.90;;;;;;5146618;27;20046;-87
2022/06/21 04:10:01;;;;;;;9.38;3.97;;;11.30;99.90;;;;;;5128804;27;20568;-87
2022/06/21 04:12:35;;;;;;;7.50;2.42;;;10.70;99.90;;;;;;5129888;27;20043;-86
2022/06/21 04:15:39;;;;;;;11.98;3.10;;;11.50;99.90;;;;;;5127835;27;20043;-86
2022/06/21 04:18:12;;;;;;;5.50;2.50;;;11.60;99.90;;;;;;5137353;27;20051;-87
2022/06/21 04:21:00;;;;;;;7.05;2.53;;;11.80;99.90;;;;;;5148602;27;20044;-87
2022/06/21 04:23:44;;;;;;;5.30;2.80;;;11.90;99.90;;;;;;5149981;27;20031;-93
2022/06/21 04:26:50;;;;;;;10.27;3.28;;;11.90;99.90;;;;;;5134248;27;20103;-90
2022/06/21 04:29:28;;;;;;;5.38;2.42;;;12.10;99.90;;;;;;5118364;27;20076;-91
2022/06/21 04:32:04;;;;;;;7.80;2.60;;;12.20;99.90;;;;;;5128641;27;20046;-93
2022/06/21 04:34:33;;;;;;;3.85;2.50;;;12.20;99.90;;;;;;5126151;27;20125;-88
2022/06/21 04:37:15;;;;;;;6.53;2.70;;;12.30;99.90;;;;;;5122240;27;20050;-88
2022/06/21 04:40:01;;;;;;;6.85;2.58;;;12.40;99.90;;;;;;5119671;27;20043;-87
2022/06/21 04:42:49;;;;;;;4.45;2.42;;;12.50;99.90;;;;;;5137301;27;20051;-87
2022/06/21 04:45:27;;;;;;;7.68;2.30;;;12.60;99.90;;;;;;5119541;27;20084;-88
2022/06/21 04:48:23;;;;;;;4.82;2.25;;;13.10;99.90;;;;;;5119308;27;20518;-86
2022/06/21 04:51:01;;;;;;;2.50;1.73;;;12.70;99.90;;;;;;5137380;27;20043;-88
2022/06/21 04:53:40;;;;;;;4.45;2.70;;;12.80;99.90;;;;;;5136146;27;20047;-86
2022/06/21 04:56:09;;;;;;;3.88;2.00;;;12.80;99.90;;;;;;5133956;27;20050;-84
2022/06/21 04:58:35;;;;;;;3.45;1.77;;;13.50;99.90;;;;;;5133871;27;20046;-82
2022/06/21 05:01:29;;;;;;;8.68;2.33;;;13.80;99.90;;;;;;5127520;27;20047;-81
2022/06/21 05:03:47;;;;;;;7.43;2.20;;;12.80;99.90;;;;;;5128109;27;20100;-83
2022/06/21 05:06:14;;;;;;;4.40;2.25;;;13.10;99.90;;;;;;5127335;27;20051;-84
2022/06/21 05:08:41;;;;;;;5.28;2.40;;;12.90;99.90;;;;;;5128643;27;20398;-85
2022/06/21 05:11:10;;;;;;;5.13;2.10;;;12.90;99.90;;;;;;5127237;27;20051;-84
2022/06/21 05:13:40;;;;;;;5.40;2.85;;;13.00;99.90;;;;;;5127547;27;20046;-84
2022/06/21 05:16:32;;;;;;;5.05;2.05;;;13.00;99.90;;;;;;5129775;27;20081;-85
2022/06/21 05:19:12;;;;;;;2.42;1.75;;;13.10;99.90;;;;;;5108982;27;20058;-84
2022/06/21 05:21:50;;;;;;;7.90;3.08;;;13.20;99.90;;;;;;5110527;27;20049;-84
2022/06/21 05:24:16;;;;;;;6.22;1.88;;;13.30;99.90;;;;;;5110360;27;20053;-85
2022/06/21 05:26:54;;;;;;;6.15;2.70;;;13.50;99.90;;;;;;5109379;27;20043;-85
2022/06/21 05:29:26;;;;;;;6.90;2.90;;;13.40;99.90;;;;;;5128735;27;20043;-85
2022/06/21 05:31:57;;;;;;;3.70;1.75;;;13.40;99.90;;;;;;5127945;27;20402;-85
2022/06/21 05:34:28;;;;;;;9.80;2.72;;;14.30;99.90;;;;;;5127357;27;20039;-85
2022/06/21 05:37:06;;;;;;;3.22;2.40;;;13.50;99.90;;;;;;5110009;27;20043;-85
2022/06/21 05:39:41;;;;;;;4.05;2.38;;;13.50;99.90;;;;;;5126353;27;20039;-85
2022/06/21 05:42:11;;;;;;;6.50;2.38;;;13.60;99.90;;;;;;5110953;28;20186;-85
2022/06/21 05:45:06;;;;;;;9.60;2.85;;;13.60;99.90;;;;;;5108892;27;20046;-85
2022/06/21 05:47:42;;;;;;;4.43;1.90;;;13.70;99.90;;;;;;5109541;27;20079;-85
2022/06/21 05:50:16;;;;;;;11.45;4.63;;;13.80;99.90;;;;;;5127252;27;20594;-85
2022/06/21 05:52:47;;;;;;;5.63;2.40;;;13.90;99.90;;;;;;5126194;28;20413;-86
2022/06/21 05:55:38;;;;;;;7.50;1.88;;;14.60;99.90;;;;;;5128343;28;20043;-85
2022/06/21 05:58:10;;;;;;;4.88;1.83;;;14.10;99.90;;;;;;5118760;28;20410;-85
2022/06/21 06:00:45;;;;;;;3.53;1.13;;;14.20;99.90;;;;;;5128284;27;20126;-85
2022/06/21 06:03:49;;;;;;;4.40;2.22;;;14.30;99.90;;;;;;5127319;28;20074;-85
2022/06/21 06:06:19;;;;;;;7.53;2.15;;;14.30;99.90;;;;;;5027393;28;20058;-85
2022/06/21 06:08:57;;;;;;;7.10;1.50;;;14.90;99.90;;;;;;5028024;28;20045;-85
2022/06/21 06:11:57;;;;;;;6.32;1.55;;;14.50;99.90;;;;;;5083520;28;20055;-84
2022/06/21 06:14:14;;;;;;;3.10;1.52;;;14.90;99.90;;;;;;5125654;28;20126;-84
2022/06/21 06:16:42;;;;;;;4.75;1.63;;;15.20;99.90;;;;;;5127395;28;20118;-85
2022/06/21 06:19:20;;;;;;;6.53;1.67;;;15.70;99.90;;;;;;5125930;28;20088;-84
2022/06/21 06:22:05;;;;;;;2.50;1.33;;;15.10;99.90;;;;;;5109403;27;20039;-85
2022/06/21 06:24:56;;;;;;;4.65;1.80;;;15.20;99.90;;;;;;5114535;27;20035;-85
2022/06/21 06:27:32;;;;;;;5.40;1.60;;;15.30;99.90;;;;;;5130038;27;20161;-85
2022/06/21 06:30:03;;;;;;;8.57;1.85;;;15.40;99.90;;;;;;5132596;27;20099;-85
2022/06/21 06:32:42;;;;;;;3.22;1.13;;;15.50;99.90;;;;;;5131129;27;20416;-86
2022/06/21 06:35:23;;;;;;;4.13;2.00;;;15.60;99.90;;;;;;5130445;27;20124;-86
2022/06/21 06:37:49;;;;;;;4.43;1.00;;;15.70;99.90;;;;;;5114194;27;20126;-85
2022/06/21 06:40:28;;;;;;;5.10;1.20;;;15.80;99.90;;;;;;5130444;27;20169;-86
2022/06/21 06:43:00;;;;;;;4.50;1.67;;;15.90;99.90;;;;;;5130699;27;20439;-86
2022/06/21 06:45:31;;;;;;;7.05;1.65;;;15.90;99.90;;;;;;5130727;27;20401;-86
2022/06/21 06:48:03;;;;;;;5.22;1.40;;;15.90;99.90;;;;;;5112567;27;20119;-86
2022/06/21 06:50:37;;;;;;;3.75;1.33;;;16.00;99.90;;;;;;5115105;27;20046;-86
2022/06/21 06:53:18;;;;;;;4.78;2.15;;;16.10;99.90;;;;;;5112739;27;20047;-86
2022/06/21 06:55:50;;;;;;;5.93;1.70;;;16.20;99.90;;;;;;5132136;27;20432;-85
2022/06/21 06:58:42;;;;;;;6.07;1.58;;;16.40;99.90;;;;;;5130408;27;20415;-85
2022/06/21 07:01:19;;;;;;;5.43;1.20;;;16.40;99.90;;;;;;5129011;27;20058;-85
2022/06/21 07:03:49;;;;;;;8.32;1.60;;;16.40;99.90;;;;;;5113939;27;20111;-85
2022/06/21 07:06:43;;;;;;;10.63;1.75;;;16.40;99.90;;;;;;5112129;27;20047;-85
2022/06/21 07:09:26;;;;;;;5.05;1.92;;;16.30;99.90;;;;;;5132504;27;20047;-85
2022/06/21 07:11:57;;;;;;;7.20;2.00;;;16.30;99.90;;;;;;5114163;27;20043;-86
2022/06/21 07:14:25;;;;;;;6.53;1.90;;;16.30;99.90;;;;;;5129240;27;20684;-86
2022/06/21 07:16:55;;;;;;;4.38;1.77;;;16.30;99.90;;;;;;5130504;27;20118;-85
2022/06/21 07:19:21;;;;;;;2.95;1.70;;;16.40;99.90;;;;;;5129987;27;20126;-85
2022/06/21 07:21:48;;;;;;;2.60;1.48;;;16.70;99.90;;;;;;5112580;27;20047;-85
2022/06/21 07:24:18;;;;;;;2.60;1.48;;;16.90;99.90;;;;;;5112771;27;20039;-85
2022/06/21 07:26:50;;;;;;;2.42;1.27;;;17.00;99.90;;;;;;5128404;27;20051;-85
2022/06/21 07:29:22;;;;;;;4.50;1.25;;;17.10;99.90;;;;;;5131785;27;20038;-86
2022/06/21 07:31:55;;;;;;;9.07;2.03;;;17.30;99.90;;;;;;5130319;27;20110;-85
2022/06/21 07:34:43;;;;;;;5.50;1.67;;;17.40;99.90;;;;;;5111792;27;20136;-85
2022/06/21 07:37:27;;;;;;;5.28;1.15;;;17.50;99.90;;;;;;5129876;27;20133;-85
2022/06/21 07:39:56;;;;;;;5.10;1.60;;;17.70;99.90;;;;;;5128312;27;20049;-85
2022/06/21 07:42:30;;;;;;;6.50;1.73;;;17.80;99.90;;;;;;5112607;27;20133;-86
2022/06/21 07:45:04;;;;;;;6.70;2.00;;;17.90;99.90;;;;;;5128753;27;20039;-84
2022/06/21 07:47:38;;;;;;;4.93;1.60;;;18.00;99.90;;;;;;5128741;27;20130;-84
2022/06/21 07:50:42;;;;;;;3.92;1.92;;;18.00;99.90;;;;;;5129502;27;20043;-83
2022/06/21 07:53:17;;;;;;;5.03;1.77;;;18.10;99.90;;;;;;5112930;27;20055;-83
2022/06/21 07:55:50;;;;;;;4.85;1.70;;;17.90;99.90;;;;;;5112126;27;20051;-85
2022/06/21 07:58:20;;;;;;;;;;;17.90;99.90;;;;;;5112587;27;20068;-85
2022/06/21 08:06:43;;;;;;;6.75;1.52;;;17.80;99.90;;;;;;5128770;27;20461;-84
2022/06/21 08:09:29;;;;;;;5.75;1.60;;;17.80;99.90;;;;;;5128137;27;20058;-84
2022/06/21 08:12:00;;;;;;;4.53;1.30;;;18.00;99.90;;;;;;5129934;27;20043;-84
2022/06/21 08:14:31;;;;;;;4.93;1.30;;;18.10;99.90;;;;;;5128217;27;20078;-84
2022/06/21 08:17:14;;;;;;;2.88;1.17;;;18.30;99.90;;;;;;5128881;27;20536;-84
2022/06/21 08:19:49;;;;;;;3.35;1.30;;;18.50;99.90;;;;;;5130447;27;20530;-85
2022/06/21 08:22:47;;;;;;;5.30;2.00;;;18.60;99.90;;;;;;5127555;27;20081;-85
2022/06/21 08:25:48;;;;;;;6.72;1.23;;;18.80;99.90;;;;;;5118361;27;20043;-83
2022/06/21 08:28:25;;;;;;;4.70;1.85;;;19.00;99.90;;;;;;5095174;27;20047;-84
2022/06/21 08:30:54;;;;;;;3.50;0.95;;;19.00;99.90;;;;;;5133405;27;20490;-84
2022/06/21 08:33:36;;;;;;;3.78;1.08;;;19.00;99.90;;;;;;5117985;27;20039;-84
2022/06/21 08:36:02;;;;;;;;;;;19.10;99.90;;;;;;5116602;27;20363;-84
2022/06/21 08:38:31;;;;;;;3.55;1.30;;;19.20;99.90;;;;;;5117386;27;19964;-84
2022/06/21 08:44:36;;;;;;;9.23;1.10;;;19.40;99.90;;;;;;5132341;27;20043;-84
2022/06/21 08:47:09;;;;;;;3.35;1.20;;;19.50;99.90;;;;;;5132681;27;20062;-84
2022/06/21 08:50:03;;;;;;;4.45;1.17;;;19.60;99.90;;;;;;5135090;27;20506;-85
2022/06/21 08:52:56;;;;;;;6.43;0.85;;;19.50;99.90;;;;;;5133435;27;20046;-84
2022/06/21 08:55:28;;;;;;;3.78;1.33;;;19.30;99.90;;;;;;5134672;27;20047;-85
2022/06/21 08:58:20;;;;;;;4.50;1.33;;;19.20;99.90;;;;;;5134174;27;20091;-84
2022/06/21 09:00:59;;;;;;;3.25;1.15;;;19.30;99.90;;;;;;5116974;27;20130;-84
2022/06/21 09:03:53;;;;;;;6.72;1.40;;;19.30;99.90;;;;;;5133880;27;20043;-86
2022/06/21 09:06:58;;;;;;;4.25;1.52;;;19.40;99.90;;;;;;5132585;27;20046;-85
2022/06/21 09:09:42;;;;;;;7.60;2.20;;;19.40;99.90;;;;;;5116088;27;20059;-85
2022/06/21 09:12:14;;;;;;;5.00;1.73;;;19.40;99.90;;;;;;5116460;27;20035;-85
2022/06/21 09:14:57;;;;;;;4.50;1.77;;;20.20;99.90;;;;;;5133065;27;20042;-85
2022/06/21 09:17:47;;;;;;;4.25;1.15;;;19.70;99.90;;;;;;5134381;27;20281;-85
2022/06/21 09:20:53;;;;;;;2.15;1.02;;;19.90;99.90;;;;;;5116070;27;20054;-85
2022/06/21 09:23:45;;;;;;;3.40;1.40;;;19.80;99.90;;;;;;5069271;27;20050;-84
2022/06/21 09:26:18;;;;;;;5.93;1.58;;;19.90;99.90;;;;;;5134273;27;20116;-84
2022/06/21 09:29:15;;;;;;;2.75;1.50;;;20.10;99.90;;;;;;5116352;27;20031;-84
2022/06/21 09:31:50;;;;;;;6.50;1.77;;;20.20;99.90;;;;;;5135171;27;20065;-84
2022/06/21 09:34:52;;;;;;;2.58;1.30;;;20.20;99.90;;;;;;5135995;27;20054;-84
2022/06/21 09:37:41;;;;;;;3.60;1.20;;;20.20;99.90;;;;;;5115246;27;20055;-85
2022/06/21 09:40:19;;;;;;;4.90;1.40;;;20.20;99.90;;;;;;5134393;27;20043;-86
2022/06/21 09:43:04;;;;;;;7.65;1.50;;;20.10;99.90;;;;;;5132903;27;20055;-85
2022/06/21 09:45:41;;;;;;;3.78;1.08;;;20.00;99.90;;;;;;5131931;27;20098;-86
2022/06/21 09:48:13;;;;;;;3.15;1.20;;;19.80;99.90;;;;;;5115065;27;20062;-85
2022/06/21 09:51:02;;;;;;;5.67;1.73;;;19.60;99.90;;;;;;5131086;27;20602;-85
2022/06/21 09:53:43;;;;;;;3.65;1.42;;;19.50;99.90;;;;;;5132248;27;20086;-84
2022/06/21 09:56:08;;;;;;;3.80;1.60;;;19.40;99.90;;;;;;5110548;28;20047;-85
2022/06/21 09:58:37;;;;;;;5.68;1.52;;;19.60;99.90;;;;;;5126266;27;20050;-85
2022/06/21 10:01:17;;;;;;;3.83;1.80;;;19.90;99.90;;;;;;5127725;28;20047;-85
2022/06/21 10:04:04;;;;;;;7.95;1.98;;;20.30;99.90;;;;;;5109017;28;20043;-85
2022/06/21 10:06:56;;;;;;;2.33;1.17;;;20.60;99.90;;;;;;5127409;28;20043;-86
2022/06/21 10:09:44;;;;;;;3.33;1.08;;;21.00;99.90;;;;;;5105774;28;20043;-86
2022/06/21 10:12:33;;;;;;;4.28;1.35;;;21.30;99.90;;;;;;5109249;28;20047;-85
2022/06/21 10:15:28;;;;;;;2.58;1.30;;;21.50;99.90;;;;;;5128356;28;20095;-85
2022/06/21 10:18:11;;;;;;;3.30;1.38;;;21.30;99.90;;;;;;5126382;28;20082;-86
2022/06/21 10:20:56;;;;;;;4.40;1.30;;;21.30;99.90;;;;;;5125567;28;20055;-86
2022/06/21 10:23:27;;;;;;;3.13;1.00;;;21.30;99.90;;;;;;5127675;28;20054;-86
2022/06/21 10:25:59;;;;;;;3.83;1.15;;;21.50;99.90;;;;;;5127612;28;20339;-86
2022/06/21 10:28:55;;;;;;;3.47;1.00;;;21.50;98.80;;;;;;5128011;28;20478;-86
2022/06/21 10:31:40;;;;;;;3.03;1.30;;;21.50;97.70;;;;;;5109854;28;20089;-86
2022/06/21 10:34:20;;;;;;;2.72;1.00;;;21.60;99.60;;;;;;5108400;28;20043;-86
2022/06/21 10:37:20;;;;;;;3.47;0.95;;;21.70;99.40;;;;;;5127449;28;20217;-86
2022/06/21 10:40:07;;;;;;;3.08;0.85;;;21.60;95.20;;;;;;5128186;28;20524;-86
2022/06/21 10:43:03;;;;;;;1.75;0.90;;;21.30;96.60;;;;;;5126042;28;20124;-86
2022/06/21 10:45:54;;;;;;;1.92;0.93;;;20.90;98.00;;;;;;5127503;28;20055;-86
2022/06/21 10:48:20;;;;;;;2.40;0.73;;;20.70;97.90;;;;;;5129113;27;20074;-86
2022/06/21 10:51:14;;;;;;;4.45;0.85;;;20.60;98.40;;;;;;5109362;28;20126;-86
2022/06/21 10:54:04;;;;;;;1.95;0.50;;;20.60;93.60;;;;;;5127750;28;20053;-86
2022/06/21 10:57:09;;;;;;;1.83;0.63;;;20.70;96.60;;;;;;5127417;28;20050;-85
2022/06/21 11:02:36;;;;;;;5.28;0.63;;;21.30;93.40;;;;;;5127177;28;20051;-85
2022/06/21 11:05:07;;;;;;;2.40;0.60;;;21.70;91.10;;;;;;5126290;28;20076;-85
2022/06/21 11:08:01;;;;;;;4.80;1.77;;;22.00;94.20;;;;;;5125471;28;20046;-85
2022/06/21 11:10:43;;;;;;;1.02;0.65;;;22.20;90.20;;;;;;5112929;27;20690;-85
2022/06/21 11:13:14;;;;;;;3.20;0.70;;;22.30;85.60;;;;;;5129942;27;20043;-85
2022/06/21 11:15:52;;;;;;;1.52;0.70;;;22.50;91.90;;;;;;5112478;27;20035;-85
2022/06/21 11:18:20;;;;;;;3.80;1.23;;;22.70;86.60;;;;;;5130089;27;20152;-86
2022/06/21 11:21:00;;;;;;;3.95;1.38;;;22.70;90.00;;;;;;5128948;27;20040;-85
2022/06/21 11:23:45;;;;;;;2.80;0.70;;;22.60;85.80;;;;;;5113585;27;20051;-85
2022/06/21 11:26:41;;;;;;;3.40;0.98;;;22.60;91.40;;;;;;5131728;27;20039;-84
2022/06/21 11:29:43;;;;;;;3.35;0.75;;;22.90;90.60;;;;;;5129201;27;20050;-85
2022/06/21 11:33:04;;;;;;;4.22;0.93;;;23.10;82.90;;;;;;5087911;27;20055;-85
2022/06/21 11:36:06;;;;;;;4.55;0.80;;;23.00;85.90;;;;;;5030615;28;20492;-86
2022/06/21 11:38:36;;;;;;;2.95;0.70;;;23.20;91.60;;;;;;5046218;28;20045;-85
2022/06/21 11:44:30;;;;;;;1.35;0.50;;;23.30;78.30;;;;;;5130047;27;20627;-85
2022/06/21 11:47:41;;;;;;;2.45;0.60;;;23.30;73.50;;;;;;5128251;27;20616;-85
2022/06/21 11:50:20;;;;;;;2.10;0.50;;;23.40;75.40;;;;;;5103500;27;20062;-86
2022/06/21 11:52:51;;;;;;;3.22;0.65;;;23.50;76.30;;;;;;5131483;27;20047;-87
2022/06/21 11:55:20;;;;;;;2.17;0.90;;;23.60;80.40;;;;;;5132524;27;20201;-85
2022/06/21 11:57:52;;;;;;;2.97;0.82;;;23.80;78.50;;;;;;5132216;27;20131;-86
2022/06/21 12:00:34;;;;;;;;;;;23.90;75.20;;;;;;5137925;27;20043;-85
2022/06/21 12:03:03;;;;;;;1.77;0.75;;;24.10;74.60;;;;;;5113422;27;20327;-85
2022/06/21 12:05:41;;;;;;;4.75;0.80;;;24.20;78.30;;;;;;5113913;27;20062;-85
2022/06/21 12:08:40;;;;;;;1.95;0.75;;;24.40;73.40;;;;;;5131092;27;20074;-85
2022/06/21 12:11:19;;;;;;;0.77;0.50;;;24.60;72.10;;;;;;5108090;27;20058;-86
2022/06/21 12:14:33;;;;;;;0.75;0.30;;;24.60;71.70;;;;;;5130261;27;20043;-86
2022/06/21 12:17:14;;;;;;;;;;;24.50;58.80;;;;;;5076963;27;20104;-86
2022/06/21 12:19:44;;;;;;;1.60;0.45;;;24.50;61.40;;;;;;5129949;27;19923;-85
2022/06/21 12:22:25;;;;;;;3.33;0.85;;;24.60;68.10;;;;;;5129165;27;20043;-86
2022/06/21 12:24:51;;;;;;;2.40;0.73;;;24.60;64.00;;;;;;5128259;27;20046;-85
2022/06/21 12:27:18;;;;;;;1.50;0.50;;;24.60;65.20;;;;;;5129226;27;20600;-86
2022/06/21 12:29:43;;;;;;;1.58;0.68;;;24.60;64.90;;;;;;5127695;27;20035;-85
2022/06/21 12:32:22;;;;;;;2.05;0.60;;;24.70;68.60;;;;;;5095156;27;20042;-86
2022/06/21 12:35:15;;;;;;;2.22;0.57;;;24.90;68.50;;;;;;5128029;27;20043;-85
2022/06/21 12:37:46;;;;;;;;;;;25.10;67.40;;;;;;5128490;27;20047;-85
2022/06/21 12:40:18;;;;;;;2.58;0.60;;;25.00;60.20;;;;;;5128954;27;19958;-85
2022/06/21 12:42:49;;;;;;;2.13;0.68;;;25.10;67.30;;;;;;5129049;27;20046;-85
2022/06/21 12:45:27;;;;;;;2.03;0.63;;;25.10;65.70;;;;;;5128691;27;20413;-83
2022/06/21 12:48:08;;;;;;;1.98;0.68;;;25.10;63.30;;;;;;5129689;27;20043;-81
2022/06/21 12:50:59;;;;;;;2.88;0.63;;;24.90;61.70;;;;;;5128450;27;20051;-80
2022/06/21 12:53:49;;;;;;;4.82;0.77;;;24.80;62.30;;;;;;5129186;27;20048;-83
2022/06/21 12:56:54;;;;;;;2.80;0.65;;;25.00;64.10;;;;;;5128603;27;20707;-86
2022/06/21 12:59:41;;;;;;;4.13;0.70;;;25.20;64.60;;;;;;5131654;27;20057;-85
2022/06/21 13:02:45;;;;;;;2.35;0.60;;;25.40;63.40;;;;;;5133282;27;20050;-85
2022/06/21 13:05:20;;;;;;;4.05;0.75;;;25.50;60.10;;;;;;5132410;27;20137;-84
2022/06/21 13:08:14;;;;;;;3.80;0.98;;;25.50;61.20;;;;;;5131745;27;20073;-84
2022/06/21 13:11:10;;;;;;;2.83;1.00;;;25.60;58.60;;;;;;5115319;27;20043;-85
2022/06/21 13:13:59;;;;;;;4.13;1.02;;;25.60;59.90;;;;;;5115927;27;20047;-85
2022/06/21 13:16:54;;;;;;;4.25;0.77;;;25.60;56.80;;;;;;5132667;27;20537;-84
2022/06/21 13:19:23;;;;;;;4.95;0.95;;;25.60;62.20;;;;;;5129258;27;20085;-85
2022/06/21 13:22:36;;;;;;;2.03;0.82;;;25.70;61.00;;;;;;5130272;27;20144;-85
2022/06/21 13:25:38;;;;;;;3.88;0.52;;;25.70;58.00;;;;;;5050699;28;20437;-85
2022/06/21 13:28:11;;;;;;;2.15;0.52;;;25.40;57.20;;;;;;5117667;27;20406;-87
2022/06/21 13:30:47;;;;;;;5.50;0.93;;;25.30;58.70;;;;;;5133027;27;20043;-84
2022/06/21 13:33:28;;;;;;;2.30;0.65;;;25.30;58.10;;;;;;5132640;27;20050;-85
2022/06/21 13:36:08;;;;;;;1.98;0.75;;;25.30;59.30;;;;;;5134485;27;20039;-84
2022/06/21 13:38:49;;;;;;;2.55;0.70;;;25.30;56.90;;;;;;5133862;27;20083;-84
2022/06/21 13:44:38;;;;;;;2.13;0.65;;;24.90;58.40;;;;;;5132007;27;20043;-83
2022/06/21 13:47:17;;;;;;;3.00;1.05;;;24.80;59.90;;;;;;5112772;28;20058;-83
2022/06/21 13:49:47;;;;;;;2.63;0.82;;;24.70;60.70;;;;;;5131901;28;20039;-83
2022/06/21 13:52:40;;;;;;;4.03;0.70;;;24.70;59.80;;;;;;5132739;27;20122;-83
2022/06/21 13:55:32;;;;;;;3.63;0.90;;;24.40;58.80;;;;;;5130742;27;20844;-83
2022/06/21 13:58:17;;;;;;;2.30;0.60;;;24.20;60.70;;;;;;5114093;28;20120;-84
2022/06/21 14:00:51;;;;;;;1.58;0.80;;;24.10;63.00;;;;;;5133076;28;20425;-83
2022/06/21 14:03:46;;;;;;;2.45;0.93;;;24.10;63.20;;;;;;5134189;28;20051;-84
2022/06/21 14:06:13;;;;;;;3.22;0.90;;;24.20;63.90;;;;;;5098566;27;20058;-84
2022/06/21 14:08:46;;;;;;;3.10;0.95;;;24.20;63.80;;;;;;5127428;27;20039;-81
2022/06/21 14:11:41;;;;;;;2.53;0.80;;;24.30;64.80;;;;;;5128966;28;20047;-82